createdAt,value
2022-08-05T00:15:13.934Z,19.8
2022-08-05T00:25:11.919Z,19.8
2022-08-05T00:35:13.819Z,19.5
2022-08-05T00:45:16.015Z,18.9
2022-08-05T00:55:18.944Z,18.7
2022-08-05T01:05:20.506Z,18.6
2022-08-05T01:15:35.181Z,18.6
2022-08-05T01:25:24.859Z,18.8
2022-08-05T01:35:50.392Z,18.8
2022-08-05T01:45:28.918Z,18.7
2022-08-05T01:55:31.436Z,18.6
2022-08-05T02:15:36.125Z,18.4
2022-08-05T02:25:49.655Z,18.4
2022-08-05T02:35:45.034Z,18.5
2022-08-05T02:45:51.663Z,18.3
2022-08-05T03:06:53.177Z,18.2
2022-08-05T03:15:49.056Z,18.2
2022-08-05T03:26:04.181Z,17.8
2022-08-05T03:35:53.302Z,17.7
2022-08-05T03:45:58.479Z,17.5
2022-08-05T03:56:06.405Z,17.4
2022-08-05T04:06:00.366Z,17.2
2022-08-05T04:16:04.871Z,17.2
2022-08-05T04:26:05.089Z,17.3
2022-08-05T04:36:09.609Z,17.4
2022-08-05T04:46:10.158Z,17.3
2022-08-05T04:56:15.608Z,17.2
2022-08-05T05:06:36.234Z,17.3
2022-08-05T05:16:19.624Z,17.1
2022-08-05T05:26:19.210Z,17.1
2022-08-05T05:36:21.626Z,17
2022-08-05T05:56:32.116Z,17.2
2022-08-05T06:06:31.332Z,17
2022-08-05T06:16:32.645Z,17
2022-08-05T06:26:33.761Z,17
2022-08-05T06:36:37.552Z,17.1
2022-08-05T06:46:36.906Z,17
2022-08-05T06:56:38.810Z,17
2022-08-05T07:06:40.989Z,16.7
2022-08-05T07:17:57.903Z,16.9
2022-08-05T07:26:44.812Z,16.9
2022-08-05T07:36:47.319Z,16.8
2022-08-05T07:46:49.470Z,17.1
2022-08-05T07:57:01.085Z,17.1
2022-08-05T08:06:53.525Z,17
2022-08-05T08:16:55.299Z,17
2022-08-05T08:26:57.205Z,16.7
2022-08-05T08:47:02.209Z,16.4
2022-08-05T08:57:04.096Z,16.3
2022-08-05T09:07:10.767Z,16.5
2022-08-05T09:17:09.613Z,16.5
2022-08-05T09:27:10.533Z,16.5
2022-08-05T09:37:15.031Z,16.8
2022-08-05T09:47:15.696Z,16.7
2022-08-05T09:57:20.735Z,16.5
2022-08-05T10:07:20.678Z,16.5
2022-08-05T10:17:37.118Z,16.7
2022-08-05T10:27:26.189Z,16.7
2022-08-05T10:37:26.688Z,17
2022-08-05T10:47:31.198Z,17.2
2022-08-05T10:57:30.862Z,18
2022-08-05T11:07:32.664Z,18.6
2022-08-05T11:17:58.536Z,18.7
2022-08-05T11:27:37.137Z,19.1
2022-08-05T11:38:27.315Z,19.3
2022-08-05T11:47:49.198Z,19.7
2022-08-05T11:58:08.963Z,19.8
2022-08-05T12:08:03.045Z,20.4
2022-08-05T12:18:00.938Z,20.2
2022-08-05T12:27:52.914Z,20.3
2022-08-05T12:48:01.857Z,21
2022-08-05T12:58:38.125Z,20.4
2022-08-05T13:07:59.637Z,20.6
2022-08-05T13:17:59.464Z,21.8
2022-08-05T13:28:01.103Z,22.9
2022-08-05T13:38:04.805Z,21.6
2022-08-05T13:48:08.366Z,20.2
2022-08-05T13:58:07.514Z,20.3
2022-08-05T14:08:11.438Z,20.6
2022-08-05T14:18:13.174Z,20.4
2022-08-05T14:28:16.104Z,20.5
2022-08-05T14:38:27.956Z,20.7
2022-08-05T14:58:21.253Z,21.3
2022-08-05T15:08:38.256Z,21.1
2022-08-05T15:18:24.776Z,21.5
2022-08-05T15:28:28.018Z,21.5
2022-08-05T15:38:33.542Z,21.2
2022-08-05T15:48:32.161Z,20.7
2022-08-05T15:58:35.626Z,21
2022-08-05T16:08:36.812Z,21.4
2022-08-05T16:18:52.018Z,22
2022-08-05T16:28:41.317Z,21.2
2022-08-05T16:38:43.010Z,21.8
2022-08-05T16:48:44.881Z,21.4
2022-08-05T16:58:47.511Z,20.9
2022-08-05T17:08:52.495Z,20.9
2022-08-05T17:18:51.021Z,20.9
2022-08-05T17:28:53.137Z,20.7
2022-08-05T17:38:54.826Z,20.5
2022-08-05T17:48:56.701Z,20.3
2022-08-05T17:58:58.861Z,20
2022-08-05T18:09:03.519Z,19.7
2022-08-05T18:19:03.590Z,19.1
2022-08-05T18:29:05.378Z,18.7
2022-08-05T18:39:09.919Z,18
2022-08-05T18:49:10.331Z,17.6
2022-08-05T18:52:03.792Z,17.6
2022-08-05T18:59:42.312Z,17.3
2022-08-05T19:09:24.519Z,17
2022-08-05T19:19:26.177Z,16.7
2022-08-05T19:29:35.635Z,16.4
2022-08-05T19:39:30.051Z,16.2
2022-08-05T19:49:32.113Z,15.9
2022-08-05T19:59:51.752Z,15.7
2022-08-05T20:09:54.307Z,15.6
2022-08-05T20:19:41.266Z,15.5
2022-08-05T20:29:40.807Z,15.4
2022-08-05T20:39:42.604Z,15.2
2022-08-05T20:49:44.747Z,15.1
2022-08-05T21:00:11.324Z,14.8
2022-08-05T21:39:57.050Z,14.1
2022-08-05T22:00:05.648Z,13.9
2022-08-05T22:30:07.569Z,13.4
2022-08-05T22:40:09.897Z,13.2
2022-08-05T22:50:18.656Z,13.1
2022-08-05T23:00:17.934Z,13
2022-08-05T23:10:16.477Z,12.9
2022-08-05T23:20:18.249Z,12.7
2022-08-05T23:30:21.001Z,12.5
2022-08-05T23:40:27.044Z,12.3
2022-08-05T23:50:25.105Z,12.1
